sensor_id;sensor_type;location;lat;lon;timestamp;P1;durP1;ratioP1;P2;durP2;ratioP2
4766;SDS011;2397;53.576;9.746;2022-11-30T00:00:36;100.33;;;37.10;;
4766;SDS011;2397;53.576;9.746;2022-11-30T00:03:02;100.47;;;35.63;;
4766;SDS011;2397;53.576;9.746;2022-11-30T00:05:30;84.90;;;37.40;;
4766;SDS011;2397;53.576;9.746;2022-11-30T00:07:56;84.83;;;36.30;;
4766;SDS011;2397;53.576;9.746;2022-11-30T00:10:26;87.40;;;36.70;;
4766;SDS011;2397;53.576;9.746;2022-11-30T00:12:52;97.87;;;36.93;;
4766;SDS011;2397;53.576;9.746;2022-11-30T00:15:19;98.37;;;37.17;;
4766;SDS011;2397;53.576;9.746;2022-11-30T00:17:45;96.13;;;38.13;;
4766;SDS011;2397;53.576;9.746;2022-11-30T00:20:12;90.20;;;36.63;;
4766;SDS011;2397;53.576;9.746;2022-11-30T00:22:40;88.97;;;36.37;;
4766;SDS011;2397;53.576;9.746;2022-11-30T00:25:07;102.63;;;37.27;;
4766;SDS011;2397;53.576;9.746;2022-11-30T00:27:34;80.90;;;36.67;;
4766;SDS011;2397;53.576;9.746;2022-11-30T00:30:00;83.40;;;34.57;;
4766;SDS011;2397;53.576;9.746;2022-11-30T00:32:27;86.83;;;33.20;;
4766;SDS011;2397;53.576;9.746;2022-11-30T00:34:54;84.90;;;36.37;;
4766;SDS011;2397;53.576;9.746;2022-11-30T00:37:21;91.57;;;35.77;;
4766;SDS011;2397;53.576;9.746;2022-11-30T00:39:47;84.83;;;35.30;;
4766;SDS011;2397;53.576;9.746;2022-11-30T00:42:14;91.20;;;36.87;;
4766;SDS011;2397;53.576;9.746;2022-11-30T00:44:40;97.50;;;37.53;;
4766;SDS011;2397;53.576;9.746;2022-11-30T00:47:07;88.13;;;33.60;;
4766;SDS011;2397;53.576;9.746;2022-11-30T00:49:33;79.97;;;34.90;;
4766;SDS011;2397;53.576;9.746;2022-11-30T00:52:00;98.47;;;37.40;;
4766;SDS011;2397;53.576;9.746;2022-11-30T00:54:26;85.70;;;34.50;;
4766;SDS011;2397;53.576;9.746;2022-11-30T00:56:53;81.43;;;35.27;;
4766;SDS011;2397;53.576;9.746;2022-11-30T00:59:19;82.63;;;34.83;;
4766;SDS011;2397;53.576;9.746;2022-11-30T01:01:46;95.90;;;37.90;;
4766;SDS011;2397;53.576;9.746;2022-11-30T01:04:12;84.03;;;36.80;;
4766;SDS011;2397;53.576;9.746;2022-11-30T01:06:39;94.93;;;35.70;;
4766;SDS011;2397;53.576;9.746;2022-11-30T01:09:05;86.70;;;36.10;;
4766;SDS011;2397;53.576;9.746;2022-11-30T01:11:32;90.93;;;36.60;;
4766;SDS011;2397;53.576;9.746;2022-11-30T01:13:58;91.47;;;35.83;;
4766;SDS011;2397;53.576;9.746;2022-11-30T01:16:29;95.70;;;36.33;;
4766;SDS011;2397;53.576;9.746;2022-11-30T01:18:57;91.20;;;37.90;;
4766;SDS011;2397;53.576;9.746;2022-11-30T01:21:25;76.20;;;33.73;;
4766;SDS011;2397;53.576;9.746;2022-11-30T01:23:53;76.67;;;33.23;;
4766;SDS011;2397;53.576;9.746;2022-11-30T01:26:20;90.10;;;34.20;;
4766;SDS011;2397;53.576;9.746;2022-11-30T01:28:53;75.20;;;34.80;;
4766;SDS011;2397;53.576;9.746;2022-11-30T01:31:21;71.83;;;33.67;;
4766;SDS011;2397;53.576;9.746;2022-11-30T01:33:50;81.00;;;35.60;;
4766;SDS011;2397;53.576;9.746;2022-11-30T01:36:19;80.20;;;35.13;;
4766;SDS011;2397;53.576;9.746;2022-11-30T01:38:48;93.13;;;34.07;;
4766;SDS011;2397;53.576;9.746;2022-11-30T01:41:18;84.40;;;34.07;;
4766;SDS011;2397;53.576;9.746;2022-11-30T01:43:48;80.90;;;33.23;;
4766;SDS011;2397;53.576;9.746;2022-11-30T01:46:30;76.00;;;34.00;;
4766;SDS011;2397;53.576;9.746;2022-11-30T01:49:03;74.43;;;32.13;;
4766;SDS011;2397;53.576;9.746;2022-11-30T01:51:41;87.90;;;36.43;;
4766;SDS011;2397;53.576;9.746;2022-11-30T01:54:12;81.67;;;31.70;;
4766;SDS011;2397;53.576;9.746;2022-11-30T01:56:42;81.80;;;33.83;;
4766;SDS011;2397;53.576;9.746;2022-11-30T01:59:12;80.27;;;34.47;;
4766;SDS011;2397;53.576;9.746;2022-11-30T02:01:39;87.67;;;35.90;;
4766;SDS011;2397;53.576;9.746;2022-11-30T02:04:10;80.83;;;32.77;;
4766;SDS011;2397;53.576;9.746;2022-11-30T02:06:43;73.57;;;32.70;;
4766;SDS011;2397;53.576;9.746;2022-11-30T02:09:10;75.47;;;33.30;;
4766;SDS011;2397;53.576;9.746;2022-11-30T02:11:38;77.73;;;34.17;;
4766;SDS011;2397;53.576;9.746;2022-11-30T02:16:58;60.43;;;30.97;;
4766;SDS011;2397;53.576;9.746;2022-11-30T02:19:42;84.23;;;35.43;;
4766;SDS011;2397;53.576;9.746;2022-11-30T02:22:51;75.87;;;32.97;;
4766;SDS011;2397;53.576;9.746;2022-11-30T02:25:46;80.53;;;34.13;;
4766;SDS011;2397;53.576;9.746;2022-11-30T02:31:10;82.43;;;33.20;;
4766;SDS011;2397;53.576;9.746;2022-11-30T02:33:41;84.20;;;33.00;;
4766;SDS011;2397;53.576;9.746;2022-11-30T02:36:09;80.43;;;33.47;;
4766;SDS011;2397;53.576;9.746;2022-11-30T02:38:36;81.07;;;33.17;;
4766;SDS011;2397;53.576;9.746;2022-11-30T02:41:03;73.53;;;34.17;;
4766;SDS011;2397;53.576;9.746;2022-11-30T02:43:29;82.30;;;33.40;;
4766;SDS011;2397;53.576;9.746;2022-11-30T02:48:57;82.93;;;36.20;;
4766;SDS011;2397;53.576;9.746;2022-11-30T02:51:32;81.60;;;34.43;;
4766;SDS011;2397;53.576;9.746;2022-11-30T02:54:01;89.27;;;35.53;;
4766;SDS011;2397;53.576;9.746;2022-11-30T02:56:28;88.20;;;34.93;;
4766;SDS011;2397;53.576;9.746;2022-11-30T02:58:54;81.67;;;37.13;;
4766;SDS011;2397;53.576;9.746;2022-11-30T03:01:21;80.20;;;35.83;;
4766;SDS011;2397;53.576;9.746;2022-11-30T03:03:47;79.50;;;33.97;;
4766;SDS011;2397;53.576;9.746;2022-11-30T03:06:14;82.47;;;33.80;;
4766;SDS011;2397;53.576;9.746;2022-11-30T03:08:40;87.80;;;35.90;;
4766;SDS011;2397;53.576;9.746;2022-11-30T03:11:06;79.97;;;34.60;;
4766;SDS011;2397;53.576;9.746;2022-11-30T03:13:33;87.60;;;35.83;;
4766;SDS011;2397;53.576;9.746;2022-11-30T03:16:09;84.60;;;34.67;;
4766;SDS011;2397;53.576;9.746;2022-11-30T03:18:38;86.37;;;35.17;;
4766;SDS011;2397;53.576;9.746;2022-11-30T03:21:05;92.17;;;36.10;;
4766;SDS011;2397;53.576;9.746;2022-11-30T03:23:36;90.67;;;36.57;;
4766;SDS011;2397;53.576;9.746;2022-11-30T03:26:04;81.30;;;33.60;;
4766;SDS011;2397;53.576;9.746;2022-11-30T03:28:33;90.00;;;36.40;;
4766;SDS011;2397;53.576;9.746;2022-11-30T03:31:00;83.67;;;37.13;;
4766;SDS011;2397;53.576;9.746;2022-11-30T03:33:27;84.77;;;32.97;;
4766;SDS011;2397;53.576;9.746;2022-11-30T03:36:06;88.50;;;36.23;;
4766;SDS011;2397;53.576;9.746;2022-11-30T03:38:35;87.20;;;33.97;;
4766;SDS011;2397;53.576;9.746;2022-11-30T03:41:10;85.57;;;36.23;;
4766;SDS011;2397;53.576;9.746;2022-11-30T03:43:44;80.83;;;33.70;;
4766;SDS011;2397;53.576;9.746;2022-11-30T03:46:12;82.07;;;33.47;;
4766;SDS011;2397;53.576;9.746;2022-11-30T03:48:39;77.70;;;34.40;;
4766;SDS011;2397;53.576;9.746;2022-11-30T03:51:06;91.30;;;35.00;;
4766;SDS011;2397;53.576;9.746;2022-11-30T03:53:33;73.83;;;34.90;;
4766;SDS011;2397;53.576;9.746;2022-11-30T03:56:00;91.00;;;36.13;;
4766;SDS011;2397;53.576;9.746;2022-11-30T03:58:29;90.83;;;37.13;;
4766;SDS011;2397;53.576;9.746;2022-11-30T04:03:33;77.27;;;32.27;;
4766;SDS011;2397;53.576;9.746;2022-11-30T04:06:00;84.87;;;33.77;;
4766;SDS011;2397;53.576;9.746;2022-11-30T04:08:27;84.33;;;34.00;;
4766;SDS011;2397;53.576;9.746;2022-11-30T04:10:54;77.60;;;33.60;;
4766;SDS011;2397;53.576;9.746;2022-11-30T04:13:22;77.43;;;33.10;;
4766;SDS011;2397;53.576;9.746;2022-11-30T04:15:50;82.03;;;34.10;;
4766;SDS011;2397;53.576;9.746;2022-11-30T04:18:19;87.03;;;34.83;;
4766;SDS011;2397;53.576;9.746;2022-11-30T04:20:48;85.40;;;35.83;;
4766;SDS011;2397;53.576;9.746;2022-11-30T04:23:18;87.77;;;34.37;;
4766;SDS011;2397;53.576;9.746;2022-11-30T04:25:45;73.67;;;33.90;;
4766;SDS011;2397;53.576;9.746;2022-11-30T04:28:13;95.50;;;34.73;;
4766;SDS011;2397;53.576;9.746;2022-11-30T04:30:41;72.90;;;32.40;;
4766;SDS011;2397;53.576;9.746;2022-11-30T04:33:08;78.00;;;32.80;;
4766;SDS011;2397;53.576;9.746;2022-11-30T04:35:38;82.70;;;34.03;;
4766;SDS011;2397;53.576;9.746;2022-11-30T04:38:16;81.37;;;33.77;;
4766;SDS011;2397;53.576;9.746;2022-11-30T04:40:43;85.23;;;36.20;;
4766;SDS011;2397;53.576;9.746;2022-11-30T04:43:12;86.70;;;36.90;;
4766;SDS011;2397;53.576;9.746;2022-11-30T04:45:38;92.07;;;36.37;;
4766;SDS011;2397;53.576;9.746;2022-11-30T04:48:05;94.33;;;37.23;;
4766;SDS011;2397;53.576;9.746;2022-11-30T04:50:32;86.47;;;36.20;;
4766;SDS011;2397;53.576;9.746;2022-11-30T04:52:59;100.33;;;37.60;;
4766;SDS011;2397;53.576;9.746;2022-11-30T04:55:25;81.40;;;36.17;;
4766;SDS011;2397;53.576;9.746;2022-11-30T04:57:52;91.20;;;36.20;;
4766;SDS011;2397;53.576;9.746;2022-11-30T05:00:19;94.07;;;37.63;;
4766;SDS011;2397;53.576;9.746;2022-11-30T05:02:45;83.43;;;35.13;;
4766;SDS011;2397;53.576;9.746;2022-11-30T05:05:18;109.97;;;41.17;;
4766;SDS011;2397;53.576;9.746;2022-11-30T05:07:47;82.60;;;36.20;;
4766;SDS011;2397;53.576;9.746;2022-11-30T05:10:24;103.13;;;37.93;;
4766;SDS011;2397;53.576;9.746;2022-11-30T05:12:51;91.33;;;35.63;;
4766;SDS011;2397;53.576;9.746;2022-11-30T05:15:18;100.40;;;37.40;;
4766;SDS011;2397;53.576;9.746;2022-11-30T05:17:45;100.17;;;35.70;;
4766;SDS011;2397;53.576;9.746;2022-11-30T05:20:11;103.60;;;40.10;;
4766;SDS011;2397;53.576;9.746;2022-11-30T05:22:38;96.73;;;36.77;;
4766;SDS011;2397;53.576;9.746;2022-11-30T05:25:05;107.33;;;39.87;;
4766;SDS011;2397;53.576;9.746;2022-11-30T05:27:32;98.83;;;37.40;;
4766;SDS011;2397;53.576;9.746;2022-11-30T05:29:58;98.63;;;38.40;;
4766;SDS011;2397;53.576;9.746;2022-11-30T05:32:25;95.80;;;37.53;;
4766;SDS011;2397;53.576;9.746;2022-11-30T05:34:51;90.20;;;36.13;;
4766;SDS011;2397;53.576;9.746;2022-11-30T05:37:18;104.00;;;37.10;;
4766;SDS011;2397;53.576;9.746;2022-11-30T05:39:45;107.03;;;38.03;;
4766;SDS011;2397;53.576;9.746;2022-11-30T05:42:11;103.40;;;39.87;;
4766;SDS011;2397;53.576;9.746;2022-11-30T05:44:37;108.53;;;40.87;;
4766;SDS011;2397;53.576;9.746;2022-11-30T05:47:04;102.70;;;37.67;;
4766;SDS011;2397;53.576;9.746;2022-11-30T05:49:30;94.27;;;38.70;;
4766;SDS011;2397;53.576;9.746;2022-11-30T05:51:57;101.10;;;36.90;;
4766;SDS011;2397;53.576;9.746;2022-11-30T05:54:23;107.60;;;37.00;;
4766;SDS011;2397;53.576;9.746;2022-11-30T05:56:50;99.47;;;37.23;;
4766;SDS011;2397;53.576;9.746;2022-11-30T05:59:20;86.13;;;35.40;;
4766;SDS011;2397;53.576;9.746;2022-11-30T06:01:46;104.63;;;36.00;;
4766;SDS011;2397;53.576;9.746;2022-11-30T06:04:13;98.13;;;34.67;;
4766;SDS011;2397;53.576;9.746;2022-11-30T06:06:39;103.10;;;37.17;;
4766;SDS011;2397;53.576;9.746;2022-11-30T06:09:06;106.20;;;38.20;;
4766;SDS011;2397;53.576;9.746;2022-11-30T06:11:32;104.70;;;35.67;;
4766;SDS011;2397;53.576;9.746;2022-11-30T06:13:59;104.27;;;35.93;;
4766;SDS011;2397;53.576;9.746;2022-11-30T06:16:25;97.60;;;36.47;;
4766;SDS011;2397;53.576;9.746;2022-11-30T06:18:52;114.33;;;37.30;;
4766;SDS011;2397;53.576;9.746;2022-11-30T06:21:18;129.90;;;43.37;;
4766;SDS011;2397;53.576;9.746;2022-11-30T06:23:50;117.33;;;39.77;;
4766;SDS011;2397;53.576;9.746;2022-11-30T06:26:17;122.90;;;40.80;;
4766;SDS011;2397;53.576;9.746;2022-11-30T06:28:43;129.00;;;38.93;;
4766;SDS011;2397;53.576;9.746;2022-11-30T06:31:15;123.90;;;39.13;;
4766;SDS011;2397;53.576;9.746;2022-11-30T06:33:42;122.50;;;38.93;;
4766;SDS011;2397;53.576;9.746;2022-11-30T06:36:08;116.37;;;40.63;;
4766;SDS011;2397;53.576;9.746;2022-11-30T06:38:35;113.90;;;37.33;;
4766;SDS011;2397;53.576;9.746;2022-11-30T06:41:05;113.10;;;40.30;;
4766;SDS011;2397;53.576;9.746;2022-11-30T06:43:34;134.33;;;40.57;;
4766;SDS011;2397;53.576;9.746;2022-11-30T06:46:02;125.80;;;38.00;;
4766;SDS011;2397;53.576;9.746;2022-11-30T06:48:29;105.57;;;35.90;;
4766;SDS011;2397;53.576;9.746;2022-11-30T06:50:56;112.43;;;38.80;;
4766;SDS011;2397;53.576;9.746;2022-11-30T06:53:23;117.40;;;39.47;;
4766;SDS011;2397;53.576;9.746;2022-11-30T06:55:50;108.60;;;36.70;;
4766;SDS011;2397;53.576;9.746;2022-11-30T06:58:17;110.80;;;36.70;;
4766;SDS011;2397;53.576;9.746;2022-11-30T07:00:44;111.20;;;36.73;;
4766;SDS011;2397;53.576;9.746;2022-11-30T07:03:11;110.43;;;36.63;;
4766;SDS011;2397;53.576;9.746;2022-11-30T07:05:40;107.97;;;36.53;;
4766;SDS011;2397;53.576;9.746;2022-11-30T07:08:19;129.67;;;37.57;;
4766;SDS011;2397;53.576;9.746;2022-11-30T07:10:46;104.80;;;36.50;;
4766;SDS011;2397;53.576;9.746;2022-11-30T07:13:13;108.23;;;36.67;;
4766;SDS011;2397;53.576;9.746;2022-11-30T07:15:42;110.47;;;36.77;;
4766;SDS011;2397;53.576;9.746;2022-11-30T07:18:08;99.57;;;35.80;;
4766;SDS011;2397;53.576;9.746;2022-11-30T07:20:35;111.93;;;38.43;;
4766;SDS011;2397;53.576;9.746;2022-11-30T07:23:02;105.87;;;33.97;;
4766;SDS011;2397;53.576;9.746;2022-11-30T07:25:50;108.23;;;35.90;;
4766;SDS011;2397;53.576;9.746;2022-11-30T07:28:33;106.37;;;37.10;;
4766;SDS011;2397;53.576;9.746;2022-11-30T07:31:01;101.03;;;35.97;;
4766;SDS011;2397;53.576;9.746;2022-11-30T07:34:02;109.20;;;36.43;;
4766;SDS011;2397;53.576;9.746;2022-11-30T07:36:31;112.07;;;34.63;;
4766;SDS011;2397;53.576;9.746;2022-11-30T07:38:58;97.57;;;36.03;;
4766;SDS011;2397;53.576;9.746;2022-11-30T07:41:25;103.07;;;36.60;;
4766;SDS011;2397;53.576;9.746;2022-11-30T07:43:51;109.47;;;36.07;;
4766;SDS011;2397;53.576;9.746;2022-11-30T07:46:18;114.20;;;36.63;;
4766;SDS011;2397;53.576;9.746;2022-11-30T07:48:45;91.07;;;34.67;;
4766;SDS011;2397;53.576;9.746;2022-11-30T07:51:20;86.60;;;32.50;;
4766;SDS011;2397;53.576;9.746;2022-11-30T07:53:47;104.93;;;36.80;;
4766;SDS011;2397;53.576;9.746;2022-11-30T07:56:15;102.63;;;34.30;;
4766;SDS011;2397;53.576;9.746;2022-11-30T07:58:43;110.73;;;35.27;;
4766;SDS011;2397;53.576;9.746;2022-11-30T08:01:11;104.50;;;36.00;;
4766;SDS011;2397;53.576;9.746;2022-11-30T08:03:39;106.80;;;35.40;;
4766;SDS011;2397;53.576;9.746;2022-11-30T08:06:07;110.60;;;35.37;;
4766;SDS011;2397;53.576;9.746;2022-11-30T08:08:38;103.00;;;36.20;;
4766;SDS011;2397;53.576;9.746;2022-11-30T08:11:07;102.40;;;36.77;;
4766;SDS011;2397;53.576;9.746;2022-11-30T08:13:35;94.63;;;35.23;;
4766;SDS011;2397;53.576;9.746;2022-11-30T08:16:02;104.20;;;34.93;;
4766;SDS011;2397;53.576;9.746;2022-11-30T08:18:30;104.17;;;36.27;;
4766;SDS011;2397;53.576;9.746;2022-11-30T08:21:01;113.97;;;34.90;;
4766;SDS011;2397;53.576;9.746;2022-11-30T08:23:30;108.70;;;34.70;;
4766;SDS011;2397;53.576;9.746;2022-11-30T08:26:01;115.53;;;40.67;;
4766;SDS011;2397;53.576;9.746;2022-11-30T08:28:32;115.97;;;36.17;;
4766;SDS011;2397;53.576;9.746;2022-11-30T08:31:05;100.60;;;36.80;;
4766;SDS011;2397;53.576;9.746;2022-11-30T08:33:34;98.00;;;33.27;;
4766;SDS011;2397;53.576;9.746;2022-11-30T08:36:20;110.33;;;34.13;;
4766;SDS011;2397;53.576;9.746;2022-11-30T08:38:47;96.00;;;36.63;;
4766;SDS011;2397;53.576;9.746;2022-11-30T08:41:15;100.47;;;32.87;;
4766;SDS011;2397;53.576;9.746;2022-11-30T08:43:44;92.30;;;33.97;;
4766;SDS011;2397;53.576;9.746;2022-11-30T08:46:12;98.17;;;34.13;;
4766;SDS011;2397;53.576;9.746;2022-11-30T08:49:00;100.80;;;34.17;;
4766;SDS011;2397;53.576;9.746;2022-11-30T08:51:47;90.97;;;33.10;;
4766;SDS011;2397;53.576;9.746;2022-11-30T08:54:33;85.07;;;32.43;;
4766;SDS011;2397;53.576;9.746;2022-11-30T08:57:00;87.63;;;35.80;;
4766;SDS011;2397;53.576;9.746;2022-11-30T08:59:29;95.13;;;34.57;;
4766;SDS011;2397;53.576;9.746;2022-11-30T09:01:56;93.87;;;33.63;;
4766;SDS011;2397;53.576;9.746;2022-11-30T09:04:22;93.53;;;32.50;;
4766;SDS011;2397;53.576;9.746;2022-11-30T09:06:49;73.60;;;31.83;;
4766;SDS011;2397;53.576;9.746;2022-11-30T09:09:15;99.67;;;35.37;;
4766;SDS011;2397;53.576;9.746;2022-11-30T09:11:42;102.80;;;35.87;;
4766;SDS011;2397;53.576;9.746;2022-11-30T09:14:08;98.90;;;34.80;;
4766;SDS011;2397;53.576;9.746;2022-11-30T09:16:35;85.27;;;32.20;;
4766;SDS011;2397;53.576;9.746;2022-11-30T09:19:02;91.30;;;33.07;;
4766;SDS011;2397;53.576;9.746;2022-11-30T09:21:28;87.87;;;31.53;;
4766;SDS011;2397;53.576;9.746;2022-11-30T09:23:55;91.47;;;34.80;;
4766;SDS011;2397;53.576;9.746;2022-11-30T09:26:22;82.23;;;32.07;;
4766;SDS011;2397;53.576;9.746;2022-11-30T09:28:51;77.77;;;31.20;;
4766;SDS011;2397;53.576;9.746;2022-11-30T09:31:20;76.73;;;30.70;;
4766;SDS011;2397;53.576;9.746;2022-11-30T09:33:51;79.90;;;32.17;;
4766;SDS011;2397;53.576;9.746;2022-11-30T09:36:21;78.57;;;33.33;;
4766;SDS011;2397;53.576;9.746;2022-11-30T09:38:49;89.73;;;33.43;;
4766;SDS011;2397;53.576;9.746;2022-11-30T09:46:56;74.20;;;31.83;;
4766;SDS011;2397;53.576;9.746;2022-11-30T09:49:35;80.53;;;31.43;;
4766;SDS011;2397;53.576;9.746;2022-11-30T09:52:06;81.67;;;31.67;;
4766;SDS011;2397;53.576;9.746;2022-11-30T09:54:41;82.27;;;30.37;;
4766;SDS011;2397;53.576;9.746;2022-11-30T09:57:22;70.50;;;29.53;;
4766;SDS011;2397;53.576;9.746;2022-11-30T09:59:53;79.63;;;29.97;;
4766;SDS011;2397;53.576;9.746;2022-11-30T10:02:32;65.70;;;28.40;;
4766;SDS011;2397;53.576;9.746;2022-11-30T10:05:10;73.13;;;31.40;;
4766;SDS011;2397;53.576;9.746;2022-11-30T10:10:33;66.97;;;29.53;;
4766;SDS011;2397;53.576;9.746;2022-11-30T10:16:21;67.20;;;30.50;;
4766;SDS011;2397;53.576;9.746;2022-11-30T10:19:14;77.43;;;31.60;;
4766;SDS011;2397;53.576;9.746;2022-11-30T10:22:10;62.33;;;29.73;;
4766;SDS011;2397;53.576;9.746;2022-11-30T10:31:13;61.70;;;28.20;;
4766;SDS011;2397;53.576;9.746;2022-11-30T10:33:45;58.03;;;27.93;;
4766;SDS011;2397;53.576;9.746;2022-11-30T10:39:02;65.80;;;28.50;;
4766;SDS011;2397;53.576;9.746;2022-11-30T10:41:32;56.17;;;28.67;;
4766;SDS011;2397;53.576;9.746;2022-11-30T10:44:11;56.87;;;27.20;;
4766;SDS011;2397;53.576;9.746;2022-11-30T10:46:46;52.83;;;25.57;;
4766;SDS011;2397;53.576;9.746;2022-11-30T10:49:21;54.33;;;26.07;;
4766;SDS011;2397;53.576;9.746;2022-11-30T10:51:50;53.27;;;25.73;;
4766;SDS011;2397;53.576;9.746;2022-11-30T10:54:21;52.97;;;25.80;;
4766;SDS011;2397;53.576;9.746;2022-11-30T10:56:48;56.97;;;25.67;;
4766;SDS011;2397;53.576;9.746;2022-11-30T10:59:19;56.67;;;25.77;;
4766;SDS011;2397;53.576;9.746;2022-11-30T11:01:49;56.60;;;26.40;;
4766;SDS011;2397;53.576;9.746;2022-11-30T11:04:19;56.63;;;26.47;;
4766;SDS011;2397;53.576;9.746;2022-11-30T11:06:58;57.67;;;26.83;;
4766;SDS011;2397;53.576;9.746;2022-11-30T11:12:03;56.20;;;26.73;;
4766;SDS011;2397;53.576;9.746;2022-11-30T11:14:29;58.83;;;27.47;;
4766;SDS011;2397;53.576;9.746;2022-11-30T11:17:04;49.00;;;25.20;;
4766;SDS011;2397;53.576;9.746;2022-11-30T11:19:45;55.07;;;26.40;;
4766;SDS011;2397;53.576;9.746;2022-11-30T11:24:42;52.47;;;26.87;;
4766;SDS011;2397;53.576;9.746;2022-11-30T11:27:23;64.07;;;26.50;;
4766;SDS011;2397;53.576;9.746;2022-11-30T11:30:10;49.47;;;26.60;;
4766;SDS011;2397;53.576;9.746;2022-11-30T11:35:31;51.17;;;25.37;;
4766;SDS011;2397;53.576;9.746;2022-11-30T11:38:15;54.20;;;25.93;;
4766;SDS011;2397;53.576;9.746;2022-11-30T11:40:59;46.57;;;24.80;;
4766;SDS011;2397;53.576;9.746;2022-11-30T11:43:28;50.33;;;25.27;;
4766;SDS011;2397;53.576;9.746;2022-11-30T11:45:58;51.40;;;25.43;;
4766;SDS011;2397;53.576;9.746;2022-11-30T11:48:29;45.20;;;24.60;;
4766;SDS011;2397;53.576;9.746;2022-11-30T11:51:02;50.73;;;25.20;;
4766;SDS011;2397;53.576;9.746;2022-11-30T11:56:25;50.63;;;26.07;;
4766;SDS011;2397;53.576;9.746;2022-11-30T12:01:39;54.50;;;26.67;;
4766;SDS011;2397;53.576;9.746;2022-11-30T12:07:04;49.37;;;25.57;;
4766;SDS011;2397;53.576;9.746;2022-11-30T12:09:47;49.57;;;26.00;;
4766;SDS011;2397;53.576;9.746;2022-11-30T12:12:23;53.13;;;26.80;;
4766;SDS011;2397;53.576;9.746;2022-11-30T12:14:49;46.57;;;25.20;;
4766;SDS011;2397;53.576;9.746;2022-11-30T12:17:20;61.40;;;26.00;;
4766;SDS011;2397;53.576;9.746;2022-11-30T12:19:53;53.80;;;27.93;;
4766;SDS011;2397;53.576;9.746;2022-11-30T12:25:20;52.60;;;27.17;;
4766;SDS011;2397;53.576;9.746;2022-11-30T12:36:59;45.00;;;24.13;;
4766;SDS011;2397;53.576;9.746;2022-11-30T12:39:42;47.57;;;24.90;;
4766;SDS011;2397;53.576;9.746;2022-11-30T12:44:57;45.50;;;26.70;;
4766;SDS011;2397;53.576;9.746;2022-11-30T13:02:39;53.47;;;26.07;;
4766;SDS011;2397;53.576;9.746;2022-11-30T13:05:10;44.50;;;23.80;;
4766;SDS011;2397;53.576;9.746;2022-11-30T13:07:45;49.73;;;25.70;;
4766;SDS011;2397;53.576;9.746;2022-11-30T13:10:24;44.33;;;23.93;;
4766;SDS011;2397;53.576;9.746;2022-11-30T13:12:57;53.57;;;26.40;;
4766;SDS011;2397;53.576;9.746;2022-11-30T13:15:27;47.43;;;25.43;;
4766;SDS011;2397;53.576;9.746;2022-11-30T13:17:56;52.23;;;26.27;;
4766;SDS011;2397;53.576;9.746;2022-11-30T13:23:15;48.53;;;26.20;;
4766;SDS011;2397;53.576;9.746;2022-11-30T13:28:59;51.00;;;26.63;;
4766;SDS011;2397;53.576;9.746;2022-11-30T13:31:53;50.00;;;25.07;;
4766;SDS011;2397;53.576;9.746;2022-11-30T13:34:30;51.10;;;24.90;;
4766;SDS011;2397;53.576;9.746;2022-11-30T13:37:10;48.00;;;23.50;;
4766;SDS011;2397;53.576;9.746;2022-11-30T13:39:48;46.77;;;24.30;;
4766;SDS011;2397;53.576;9.746;2022-11-30T13:42:35;47.90;;;25.30;;
4766;SDS011;2397;53.576;9.746;2022-11-30T13:47:45;46.40;;;24.20;;
4766;SDS011;2397;53.576;9.746;2022-11-30T13:58:02;39.60;;;22.27;;
4766;SDS011;2397;53.576;9.746;2022-11-30T14:05:49;53.53;;;27.33;;
4766;SDS011;2397;53.576;9.746;2022-11-30T14:26:07;48.40;;;25.47;;
4766;SDS011;2397;53.576;9.746;2022-11-30T14:31:48;47.27;;;25.27;;
4766;SDS011;2397;53.576;9.746;2022-11-30T14:34:25;51.63;;;25.47;;
4766;SDS011;2397;53.576;9.746;2022-11-30T14:36:58;61.53;;;25.60;;
4766;SDS011;2397;53.576;9.746;2022-11-30T14:39:36;46.00;;;25.03;;
4766;SDS011;2397;53.576;9.746;2022-11-30T14:42:14;47.23;;;25.43;;
4766;SDS011;2397;53.576;9.746;2022-11-30T14:44:46;48.13;;;26.50;;
4766;SDS011;2397;53.576;9.746;2022-11-30T14:47:13;53.70;;;27.40;;
4766;SDS011;2397;53.576;9.746;2022-11-30T14:49:45;49.57;;;24.57;;
4766;SDS011;2397;53.576;9.746;2022-11-30T14:52:14;51.30;;;25.07;;
4766;SDS011;2397;53.576;9.746;2022-11-30T14:54:53;52.27;;;22.90;;
4766;SDS011;2397;53.576;9.746;2022-11-30T14:57:38;58.67;;;26.33;;
4766;SDS011;2397;53.576;9.746;2022-11-30T15:00:16;54.33;;;26.53;;
4766;SDS011;2397;53.576;9.746;2022-11-30T15:02:46;55.00;;;24.53;;
4766;SDS011;2397;53.576;9.746;2022-11-30T15:05:15;58.13;;;24.60;;
4766;SDS011;2397;53.576;9.746;2022-11-30T15:07:45;59.23;;;25.73;;
4766;SDS011;2397;53.576;9.746;2022-11-30T15:10:14;61.30;;;24.73;;
4766;SDS011;2397;53.576;9.746;2022-11-30T15:12:54;66.27;;;27.00;;
4766;SDS011;2397;53.576;9.746;2022-11-30T15:15:22;58.77;;;28.53;;
4766;SDS011;2397;53.576;9.746;2022-11-30T15:17:57;66.33;;;29.13;;
4766;SDS011;2397;53.576;9.746;2022-11-30T15:20:43;64.07;;;26.57;;
4766;SDS011;2397;53.576;9.746;2022-11-30T15:23:15;59.00;;;25.80;;
4766;SDS011;2397;53.576;9.746;2022-11-30T15:25:43;61.83;;;26.50;;
4766;SDS011;2397;53.576;9.746;2022-11-30T15:28:14;62.53;;;27.70;;
4766;SDS011;2397;53.576;9.746;2022-11-30T15:30:45;68.30;;;25.57;;
4766;SDS011;2397;53.576;9.746;2022-11-30T15:33:20;68.00;;;27.23;;
4766;SDS011;2397;53.576;9.746;2022-11-30T15:35:49;64.87;;;28.27;;
4766;SDS011;2397;53.576;9.746;2022-11-30T15:38:39;67.33;;;29.23;;
4766;SDS011;2397;53.576;9.746;2022-11-30T15:41:06;69.77;;;27.57;;
4766;SDS011;2397;53.576;9.746;2022-11-30T15:43:43;63.90;;;26.93;;
4766;SDS011;2397;53.576;9.746;2022-11-30T15:46:37;68.90;;;28.10;;
4766;SDS011;2397;53.576;9.746;2022-11-30T15:49:16;72.07;;;29.50;;
4766;SDS011;2397;53.576;9.746;2022-11-30T15:51:47;78.27;;;30.90;;
4766;SDS011;2397;53.576;9.746;2022-11-30T15:54:45;62.20;;;29.50;;
4766;SDS011;2397;53.576;9.746;2022-11-30T15:57:25;64.47;;;28.00;;
4766;SDS011;2397;53.576;9.746;2022-11-30T16:02:45;71.77;;;28.53;;
4766;SDS011;2397;53.576;9.746;2022-11-30T16:07:47;71.77;;;27.63;;
4766;SDS011;2397;53.576;9.746;2022-11-30T16:10:18;72.43;;;30.60;;
4766;SDS011;2397;53.576;9.746;2022-11-30T16:12:48;71.00;;;28.43;;
4766;SDS011;2397;53.576;9.746;2022-11-30T16:15:17;69.40;;;28.43;;
4766;SDS011;2397;53.576;9.746;2022-11-30T16:17:44;85.70;;;31.93;;
4766;SDS011;2397;53.576;9.746;2022-11-30T16:20:11;74.37;;;32.00;;
4766;SDS011;2397;53.576;9.746;2022-11-30T16:22:42;74.60;;;30.07;;
4766;SDS011;2397;53.576;9.746;2022-11-30T16:25:11;78.00;;;33.33;;
4766;SDS011;2397;53.576;9.746;2022-11-30T16:27:39;82.73;;;28.87;;
4766;SDS011;2397;53.576;9.746;2022-11-30T16:30:07;82.37;;;31.07;;
4766;SDS011;2397;53.576;9.746;2022-11-30T16:32:35;79.53;;;30.27;;
4766;SDS011;2397;53.576;9.746;2022-11-30T16:35:01;75.50;;;33.40;;
4766;SDS011;2397;53.576;9.746;2022-11-30T16:37:27;72.60;;;28.73;;
4766;SDS011;2397;53.576;9.746;2022-11-30T16:39:54;79.47;;;31.50;;
4766;SDS011;2397;53.576;9.746;2022-11-30T16:42:20;81.43;;;32.80;;
4766;SDS011;2397;53.576;9.746;2022-11-30T16:44:46;87.30;;;32.57;;
4766;SDS011;2397;53.576;9.746;2022-11-30T16:47:13;98.37;;;33.50;;
4766;SDS011;2397;53.576;9.746;2022-11-30T16:49:39;92.63;;;31.80;;
4766;SDS011;2397;53.576;9.746;2022-11-30T16:52:08;104.73;;;33.93;;
4766;SDS011;2397;53.576;9.746;2022-11-30T16:54:40;102.70;;;33.50;;
4766;SDS011;2397;53.576;9.746;2022-11-30T16:57:06;102.33;;;34.33;;
4766;SDS011;2397;53.576;9.746;2022-11-30T16:59:33;100.57;;;32.33;;
4766;SDS011;2397;53.576;9.746;2022-11-30T17:02:00;94.03;;;32.80;;
4766;SDS011;2397;53.576;9.746;2022-11-30T17:04:26;89.13;;;32.90;;
4766;SDS011;2397;53.576;9.746;2022-11-30T17:06:54;91.00;;;35.07;;
4766;SDS011;2397;53.576;9.746;2022-11-30T17:09:28;91.40;;;32.67;;
4766;SDS011;2397;53.576;9.746;2022-11-30T17:11:55;102.13;;;34.33;;